Time;durP1;ratioP1;P1;durP2;ratioP2;P2;SDS_P1;SDS_P2;PMS_P1;PMS_P2;Temp;Humidity;BMP_temperature;BMP_pressure;BME280_temperature;BME280_humidity;BME280_pressure;Samples;Min_cycle;Max_cycle;Signal;HPM_P1;HPM_P2
2022/06/02 00:01:30;;;;;;;3.35;1.10;;;16.80;74.90;;;;;;5094545;28;20281;-65
2022/06/02 00:04:09;;;;;;;3.15;1.30;;;16.70;75.20;;;;;;5093485;28;20024;-65
2022/06/02 00:06:50;;;;;;;5.95;1.27;;;16.60;75.40;;;;;;5074585;28;20049;-65
2022/06/02 00:10:02;;;;;;;5.97;1.23;;;16.50;75.90;;;;;;5092935;28;20047;-65
2022/06/02 00:12:41;;;;;;;3.00;1.15;;;16.40;77.00;;;;;;5084811;28;20059;-64
2022/06/02 00:15:33;;;;;;;3.40;1.20;;;16.20;76.80;;;;;;5096763;28;20045;-64
2022/06/02 00:18:10;;;;;;;2.80;1.27;;;16.20;77.00;;;;;;5097577;28;20044;-65
2022/06/02 00:21:01;;;;;;;3.67;1.10;;;16.20;77.30;;;;;;5097184;28;20099;-65
2022/06/02 00:23:41;;;;;;;7.32;1.45;;;16.10;77.60;;;;;;5097092;28;20028;-65
2022/06/02 00:26:31;;;;;;;2.42;1.10;;;16.00;77.90;;;;;;5097448;28;20032;-65
2022/06/02 00:29:06;;;;;;;4.10;1.60;;;16.00;78.00;;;;;;5096973;28;20024;-64
2022/06/02 00:31:43;;;;;;;1.98;1.10;;;16.00;78.20;;;;;;5080731;28;20028;-64
2022/06/02 00:34:24;;;;;;;3.10;1.20;;;16.00;78.40;;;;;;5080612;28;20031;-64
2022/06/02 00:37:08;;;;;;;2.40;1.10;;;15.90;78.70;;;;;;5078744;28;20035;-64
2022/06/02 00:39:34;;;;;;;2.03;1.42;;;15.80;79.00;;;;;;5078783;28;20413;-65
2022/06/02 00:42:12;;;;;;;2.33;1.10;;;15.80;79.00;;;;;;5097183;28;20019;-64
2022/06/02 00:44:59;;;;;;;2.42;1.23;;;15.80;79.10;;;;;;5096780;28;20024;-64
2022/06/02 00:47:48;;;;;;;3.33;1.33;;;15.90;79.70;;;;;;5078353;28;20386;-64
2022/06/02 00:50:32;;;;;;;3.03;1.27;;;15.90;79.00;;;;;;5096726;28;20387;-64
2022/06/02 00:53:22;;;;;;;5.13;1.30;;;16.00;79.00;;;;;;5096790;28;20039;-66
2022/06/02 00:59:28;;;;;;;2.92;1.35;;;15.90;79.10;;;;;;5096830;28;20035;-64
2022/06/02 01:01:55;;;;;;;7.00;1.25;;;16.00;79.10;;;;;;5096313;28;20374;-64
2022/06/02 01:04:21;;;;;;;3.15;1.40;;;16.00;79.00;;;;;;5096277;28;20028;-64
2022/06/02 01:06:50;;;;;;;2.00;1.30;;;16.00;78.90;;;;;;5096058;28;20069;-64
2022/06/02 01:09:40;;;;;;;2.90;1.33;;;16.00;79.00;;;;;;5096029;28;20508;-64
2022/06/02 01:12:29;;;;;;;1.42;1.20;;;16.00;79.20;;;;;;5096438;28;20532;-64
2022/06/02 01:15:34;;;;;;;4.55;1.80;;;15.90;79.40;;;;;;5096003;28;20058;-65
2022/06/02 01:18:36;;;;;;;2.88;1.20;;;15.90;79.90;;;;;;5096012;28;20032;-65
2022/06/02 01:21:28;;;;;;;3.75;1.10;;;15.80;80.30;;;;;;5095864;28;20028;-65
2022/06/02 01:24:10;;;;;;;3.05;1.30;;;15.80;80.50;;;;;;5095915;28;20074;-64
2022/06/02 01:27:20;;;;;;;2.75;1.48;;;15.80;80.50;;;;;;5095760;28;20059;-65
2022/06/02 01:30:06;;;;;;;4.15;1.85;;;15.70;80.90;;;;;;4997325;28;20030;-65
2022/06/02 01:33:04;;;;;;;2.38;1.20;;;15.60;81.60;;;;;;5013415;28;20061;-65
2022/06/02 01:35:56;;;;;;;;;;;15.40;82.20;;;;;;4997358;28;20072;-63
2022/06/02 01:38:32;;;;;;;2.15;1.15;;;15.40;82.60;;;;;;5013568;28;19909;-65
2022/06/02 01:41:18;;;;;;;3.87;1.20;;;15.30;83.70;;;;;;5013623;28;20042;-65
2022/06/02 01:44:18;;;;;;;4.22;1.13;;;15.20;83.30;;;;;;5013116;28;20272;-65
2022/06/02 01:46:56;;;;;;;2.58;1.13;;;15.10;83.80;;;;;;4981315;28;20041;-64
2022/06/02 01:50:04;;;;;;;3.20;1.25;;;15.10;84.30;;;;;;5013288;28;20025;-65
2022/06/02 01:52:44;;;;;;;;;;;15.00;84.70;;;;;;5013289;28;20045;-65
2022/06/02 01:55:27;;;;;;;3.25;1.20;;;15.00;85.10;;;;;;5012944;28;19905;-65
2022/06/02 01:57:54;;;;;;;2.65;1.15;;;15.10;85.30;;;;;;5013174;28;20518;-64
2022/06/02 02:00:22;;;;;;;6.82;1.80;;;15.10;85.30;;;;;;5012919;28;20598;-65
2022/06/02 02:03:10;;;;;;;2.08;1.13;;;15.10;85.20;;;;;;5013214;28;20030;-65
2022/06/02 02:06:13;;;;;;;3.15;1.35;;;15.10;85.20;;;;;;5043333;28;20032;-65
2022/06/02 02:08:42;;;;;;;4.05;1.30;;;15.10;85.50;;;;;;5094734;28;20025;-65
2022/06/02 02:11:21;;;;;;;7.88;1.70;;;15.20;85.40;;;;;;5094452;28;20028;-65
2022/06/02 02:14:15;;;;;;;2.63;1.48;;;15.20;85.50;;;;;;5076276;28;20039;-65
2022/06/02 02:16:59;;;;;;;2.97;1.17;;;15.20;85.70;;;;;;5059139;28;20036;-65
2022/06/02 02:19:43;;;;;;;6.03;1.75;;;15.10;85.90;;;;;;5094282;28;20387;-64
2022/06/02 02:22:16;;;;;;;1.90;1.10;;;15.10;86.20;;;;;;5094793;28;20038;-64
2022/06/02 02:25:10;;;;;;;2.63;1.10;;;15.10;86.40;;;;;;5094612;28;20028;-64
2022/06/02 02:28:04;;;;;;;4.07;1.67;;;15.00;86.90;;;;;;5094052;28;20020;-65
2022/06/02 02:30:44;;;;;;;2.33;1.20;;;14.90;87.50;;;;;;5094457;28;20024;-64
2022/06/02 02:33:51;;;;;;;5.47;1.55;;;14.90;88.00;;;;;;5094355;28;20059;-65
2022/06/02 02:36:50;;;;;;;3.90;1.55;;;14.90;88.40;;;;;;5093348;28;20020;-65
2022/06/02 02:39:38;;;;;;;8.50;1.83;;;14.90;88.80;;;;;;5094895;28;20126;-65
2022/06/02 02:42:08;;;;;;;2.63;1.52;;;14.90;88.90;;;;;;5095463;28;20027;-64
2022/06/02 02:45:04;;;;;;;5.07;1.70;;;14.90;89.00;;;;;;5094478;28;20016;-64
2022/06/02 02:47:42;;;;;;;5.13;1.90;;;14.90;89.10;;;;;;5093940;28;20062;-64
2022/06/02 02:50:40;;;;;;;3.97;1.70;;;15.00;89.20;;;;;;5094688;28;20028;-65
2022/06/02 02:53:14;;;;;;;3.97;1.80;;;15.00;89.10;;;;;;5093672;28;20024;-64
2022/06/02 02:55:50;;;;;;;2.45;1.30;;;15.00;89.50;;;;;;5093549;28;20024;-65
2022/06/02 02:58:43;;;;;;;3.13;1.50;;;15.00;89.80;;;;;;5093920;28;20032;-65
2022/06/02 03:01:24;;;;;;;4.00;1.58;;;14.90;90.00;;;;;;5093796;28;20398;-65
2022/06/02 03:04:07;;;;;;;4.57;1.80;;;14.90;90.20;;;;;;5076025;28;20111;-65
2022/06/02 03:06:37;;;;;;;3.08;1.40;;;14.80;90.40;;;;;;5076184;28;20486;-65
2022/06/02 03:09:17;;;;;;;6.78;2.40;;;14.60;91.00;;;;;;5094472;28;20042;-65
2022/06/02 03:12:04;;;;;;;2.97;1.73;;;14.50;91.30;;;;;;5095002;28;20020;-65
2022/06/02 03:15:02;;;;;;;3.57;1.50;;;14.30;91.90;;;;;;5093895;28;20030;-65
2022/06/02 03:17:40;;;;;;;5.78;1.60;;;14.30;92.30;;;;;;5093972;28;20032;-63
2022/06/02 03:20:33;;;;;;;3.10;1.50;;;14.30;92.50;;;;;;5093639;28;20470;-63
2022/06/02 03:23:07;;;;;;;2.63;1.60;;;14.30;92.50;;;;;;5093618;28;20020;-63
2022/06/02 03:25:50;;;;;;;4.63;1.77;;;14.30;92.80;;;;;;5093740;28;20031;-62
2022/06/02 03:28:43;;;;;;;4.38;1.83;;;14.10;93.20;;;;;;5093779;28;20111;-63
2022/06/02 03:31:33;;;;;;;3.97;1.55;;;14.10;93.70;;;;;;5093189;28;20019;-62
2022/06/02 03:34:29;;;;;;;2.28;1.77;;;14.00;94.30;;;;;;5093198;28;20024;-62
2022/06/02 03:37:17;;;;;;;3.50;2.00;;;13.80;95.00;;;;;;5093164;28;20012;-62
2022/06/02 03:40:23;;;;;;;3.25;2.15;;;13.70;96.00;;;;;;5093068;28;20024;-62
2022/06/02 03:43:20;;;;;;;3.83;2.17;;;13.50;96.90;;;;;;5093178;28;20047;-61
2022/06/02 03:46:40;;;;;;;7.70;1.90;;;13.50;97.70;;;;;;5074820;28;20020;-62
2022/06/02 03:49:09;;;;;;;3.13;2.00;;;13.40;98.50;;;;;;5010984;28;20452;-63
2022/06/02 03:51:42;;;;;;;5.50;1.85;;;13.40;99.20;;;;;;5011180;28;20117;-62
2022/06/02 03:54:22;;;;;;;3.38;2.00;;;13.40;99.50;;;;;;5011824;28;20034;-62
2022/06/02 03:57:09;;;;;;;2.70;1.80;;;13.40;99.60;;;;;;5011123;28;20030;-63
2022/06/02 03:59:44;;;;;;;3.35;1.80;;;13.40;99.90;;;;;;5011252;28;20034;-62
2022/06/02 04:02:15;;;;;;;3.90;1.95;;;13.40;99.90;;;;;;5012639;28;20033;-62
2022/06/02 04:05:03;;;;;;;4.22;1.88;;;13.30;99.90;;;;;;5012873;28;20101;-62
2022/06/02 04:08:26;;;;;;;4.22;1.90;;;13.30;99.90;;;;;;5013285;28;20036;-63
2022/06/02 04:11:22;;;;;;;3.33;1.70;;;13.30;99.90;;;;;;4993526;28;20034;-62
2022/06/02 04:14:15;;;;;;;5.82;2.08;;;13.30;99.90;;;;;;5014645;28;20034;-64
2022/06/02 04:16:53;;;;;;;5.25;2.15;;;13.40;99.90;;;;;;5012983;28;20034;-62
2022/06/02 04:22:48;;;;;;;5.40;2.10;;;13.50;99.90;;;;;;5094822;28;20112;-62
2022/06/02 04:25:43;;;;;;;3.72;2.50;;;13.60;99.90;;;;;;5076136;28;20485;-63
2022/06/02 04:28:51;;;;;;;4.85;1.83;;;13.70;99.90;;;;;;5075904;28;20020;-61
2022/06/02 04:31:23;;;;;;;3.83;2.60;;;13.70;99.90;;;;;;5093774;28;20020;-61
2022/06/02 04:34:15;;;;;;;4.28;2.17;;;13.70;99.90;;;;;;5093808;28;20031;-62
2022/06/02 04:36:50;;;;;;;4.10;2.20;;;13.60;99.90;;;;;;5094891;28;20545;-62
2022/06/02 04:39:33;;;;;;;5.10;2.22;;;13.60;99.90;;;;;;5094005;28;20028;-62
2022/06/02 04:42:17;;;;;;;3.25;1.92;;;13.60;99.90;;;;;;5093979;28;20039;-61
2022/06/02 04:44:59;;;;;;;4.38;2.22;;;13.60;99.90;;;;;;5094060;28;20359;-61
2022/06/02 04:47:42;;;;;;;7.40;2.75;;;13.60;99.90;;;;;;5093251;28;20031;-62
2022/06/02 04:50:22;;;;;;;5.15;2.33;;;13.70;99.90;;;;;;5092985;28;20546;-62
2022/06/02 04:53:27;;;;;;;5.30;2.20;;;13.80;99.90;;;;;;5092639;28;20426;-62
2022/06/02 04:56:26;;;;;;;4.00;2.17;;;13.90;99.90;;;;;;5010651;28;20137;-63
2022/06/02 04:59:10;;;;;;;3.92;2.20;;;13.80;99.90;;;;;;5010562;28;20061;-62
2022/06/02 05:02:13;;;;;;;3.60;2.00;;;13.80;99.90;;;;;;4997934;28;20018;-63
2022/06/02 05:05:06;;;;;;;3.22;2.00;;;13.70;99.90;;;;;;4936371;29;20031;-61
2022/06/02 05:07:46;;;;;;;4.32;2.40;;;13.60;99.90;;;;;;4936454;29;20040;-62
2022/06/02 05:10:35;;;;;;;5.57;2.30;;;13.70;99.90;;;;;;4937075;29;20483;-64
2022/06/02 05:13:14;;;;;;;3.70;3.15;;;13.70;99.90;;;;;;4907813;29;20053;-63
2022/06/02 05:16:08;;;;;;;4.40;2.30;;;13.80;99.90;;;;;;4936461;29;20024;-62
2022/06/02 05:18:51;;;;;;;4.72;2.20;;;13.90;99.90;;;;;;4936102;29;20047;-63
2022/06/02 05:21:37;;;;;;;4.88;2.55;;;14.00;99.90;;;;;;4936924;29;20066;-63
2022/06/02 05:24:26;;;;;;;3.53;1.98;;;14.10;99.90;;;;;;4936235;29;20036;-63
2022/06/02 05:27:20;;;;;;;3.42;2.40;;;14.20;99.90;;;;;;4917303;29;20040;-63
2022/06/02 05:30:22;;;;;;;4.03;2.47;;;14.30;99.90;;;;;;4936745;29;20522;-63
2022/06/02 05:33:19;;;;;;;4.70;2.25;;;14.40;99.90;;;;;;5013520;28;20484;-64
2022/06/02 05:36:29;;;;;;;4.65;2.03;;;14.50;99.90;;;;;;4996868;28;20030;-62
2022/06/02 05:39:33;;;;;;;3.63;1.85;;;14.60;99.90;;;;;;5049540;28;20105;-64
2022/06/02 05:42:43;;;;;;;4.57;2.22;;;14.70;99.90;;;;;;5094826;28;20020;-63
2022/06/02 05:45:30;;;;;;;6.78;2.10;;;14.70;99.90;;;;;;5094983;28;20023;-63
2022/06/02 05:48:10;;;;;;;4.07;1.90;;;14.80;99.90;;;;;;5094943;28;20128;-65
2022/06/02 05:50:50;;;;;;;3.83;1.88;;;14.80;99.90;;;;;;5095168;28;20505;-64
2022/06/02 05:53:37;;;;;;;7.57;2.45;;;14.90;99.90;;;;;;5095573;28;20032;-63
2022/06/02 05:56:14;;;;;;;4.30;2.15;;;15.00;99.90;;;;;;5095005;28;20024;-63
2022/06/02 05:59:05;;;;;;;6.18;2.00;;;15.10;99.90;;;;;;5094740;28;20048;-63
2022/06/02 06:01:47;;;;;;;5.72;2.00;;;15.10;99.90;;;;;;5094912;28;20181;-62
2022/06/02 06:04:37;;;;;;;4.38;1.98;;;15.20;99.90;;;;;;5076460;28;20024;-63
2022/06/02 06:07:48;;;;;;;3.28;1.63;;;15.20;99.90;;;;;;5094466;28;20016;-63
2022/06/02 06:10:42;;;;;;;7.28;1.73;;;15.30;99.90;;;;;;5094884;28;20020;-62
2022/06/02 06:13:20;;;;;;;4.03;1.83;;;15.30;99.60;;;;;;5083232;28;20384;-60
2022/06/02 06:16:17;;;;;;;3.55;1.88;;;15.50;99.70;;;;;;5075954;28;20036;-62
2022/06/02 06:19:03;;;;;;;4.53;1.98;;;15.60;99.50;;;;;;5093584;28;20040;-61
2022/06/02 06:22:01;;;;;;;3.85;1.75;;;15.80;99.10;;;;;;5094834;28;20483;-61
2022/06/02 06:25:24;;;;;;;3.42;1.75;;;16.00;98.50;;;;;;5095025;28;20024;-62
2022/06/02 06:28:06;;;;;;;3.97;2.00;;;16.20;98.40;;;;;;5012416;28;20026;-63
2022/06/02 06:30:53;;;;;;;4.53;1.35;;;16.20;98.00;;;;;;5012862;28;20100;-62
2022/06/02 06:33:27;;;;;;;6.88;1.60;;;16.10;97.70;;;;;;4995904;28;20033;-62
2022/06/02 06:36:17;;;;;;;2.72;1.33;;;16.10;97.30;;;;;;5012309;28;20026;-60
2022/06/02 06:39:04;;;;;;;4.65;1.58;;;16.20;97.50;;;;;;5012119;28;20041;-62
2022/06/02 06:41:55;;;;;;;4.50;2.30;;;16.30;97.20;;;;;;5012280;28;20384;-62
2022/06/02 06:44:45;;;;;;;4.53;1.80;;;16.40;97.00;;;;;;4982608;28;20038;-60
2022/06/02 06:47:29;;;;;;;3.83;1.85;;;16.40;97.20;;;;;;5011918;28;20080;-62
2022/06/02 06:50:09;;;;;;;9.70;1.80;;;16.40;96.70;;;;;;5012410;28;20053;-62
2022/06/02 06:52:42;;;;;;;4.13;1.58;;;16.50;96.60;;;;;;5012231;28;20042;-62
2022/06/02 06:55:42;;;;;;;3.42;1.80;;;16.50;96.50;;;;;;5011868;28;20072;-64
2022/06/02 06:58:36;;;;;;;3.83;1.50;;;16.50;96.00;;;;;;5036884;28;20093;-63
2022/06/02 07:01:06;;;;;;;4.90;1.50;;;16.70;95.80;;;;;;5094226;28;20032;-64
2022/06/02 07:03:50;;;;;;;2.13;1.10;;;16.80;95.60;;;;;;5093863;28;20023;-60
2022/06/02 07:06:24;;;;;;;3.42;1.65;;;16.90;95.00;;;;;;5093375;28;20020;-63
2022/06/02 07:09:14;;;;;;;3.35;1.58;;;17.00;95.00;;;;;;5093869;28;20407;-64
2022/06/02 07:14:57;;;;;;;2.47;1.42;;;17.30;91.30;;;;;;5093883;28;20432;-64
2022/06/02 07:17:35;;;;;;;3.22;1.10;;;17.50;90.20;;;;;;5093519;28;20028;-63
2022/06/02 07:20:16;;;;;;;4.10;1.20;;;17.70;90.00;;;;;;5074985;28;20023;-63
2022/06/02 07:23:06;;;;;;;4.22;1.63;;;17.80;88.40;;;;;;5093871;28;20028;-63
2022/06/02 07:25:55;;;;;;;5.47;1.23;;;17.70;89.00;;;;;;5075850;28;20367;-64
2022/06/02 07:28:33;;;;;;;5.78;1.60;;;17.70;89.20;;;;;;5093806;28;20048;-63
2022/06/02 07:31:18;;;;;;;2.55;1.17;;;17.70;88.40;;;;;;5093511;28;20501;-63
2022/06/02 07:34:20;;;;;;;3.70;1.20;;;17.70;88.20;;;;;;5092993;28;20043;-62
2022/06/02 07:37:16;;;;;;;2.72;1.20;;;17.80;88.40;;;;;;5093049;28;20020;-63
2022/06/02 07:40:14;;;;;;;1.27;0.70;;;17.90;89.10;;;;;;5093307;28;20071;-63
2022/06/02 07:43:24;;;;;;;1.58;1.30;;;18.10;86.90;;;;;;5092914;28;20447;-64
2022/06/02 07:46:04;;;;;;;3.17;1.38;;;18.30;85.50;;;;;;4994507;28;20046;-64
2022/06/02 07:48:38;;;;;;;2.45;1.00;;;18.50;84.40;;;;;;5011023;28;20029;-61
2022/06/02 07:51:22;;;;;;;2.30;1.02;;;18.50;82.60;;;;;;5011126;28;20245;-64
2022/06/02 07:54:19;;;;;;;1.20;0.90;;;18.60;81.30;;;;;;5011049;28;20037;-63
2022/06/02 07:57:08;;;;;;;4.10;0.80;;;18.70;81.00;;;;;;5010520;28;20036;-62
2022/06/02 07:59:47;;;;;;;1.95;0.93;;;18.90;80.50;;;;;;5010846;28;20030;-63
2022/06/02 08:02:24;;;;;;;1.45;0.90;;;19.00;78.40;;;;;;5011059;28;20030;-63
2022/06/02 08:05:31;;;;;;;1.77;1.10;;;19.20;77.40;;;;;;5010774;28;20033;-65
2022/06/02 08:08:21;;;;;;;2.85;1.10;;;19.60;75.70;;;;;;4994111;28;20029;-63
2022/06/02 08:11:12;;;;;;;1.95;1.13;;;21.10;73.00;;;;;;4994236;28;20076;-60
2022/06/02 08:13:41;;;;;;;2.28;1.08;;;22.60;68.80;;;;;;5001589;28;20088;-63
2022/06/02 08:16:30;;;;;;;2.85;0.93;;;24.00;65.20;;;;;;5038660;28;20117;-63
2022/06/02 08:19:28;;;;;;;1.10;0.82;;;24.80;63.10;;;;;;5091664;28;20081;-64
2022/06/02 08:22:01;;;;;;;1.60;0.82;;;25.50;59.50;;;;;;5092365;28;20026;-64
2022/06/02 08:24:34;;;;;;;0.88;0.80;;;25.80;58.90;;;;;;5092731;28;20133;-65
2022/06/02 08:27:00;;;;;;;2.80;0.82;;;25.50;57.20;;;;;;5092482;28;20550;-64
2022/06/02 08:30:04;;;;;;;1.15;0.80;;;25.80;58.20;;;;;;5074124;28;20059;-64
2022/06/02 08:32:44;;;;;;;1.55;0.85;;;26.60;56.80;;;;;;5087993;28;20118;-64
2022/06/02 08:35:32;;;;;;;3.10;0.70;;;26.10;57.70;;;;;;5094010;28;20035;-65
2022/06/02 08:38:35;;;;;;;2.25;0.93;;;26.60;56.50;;;;;;5096111;28;20034;-64
2022/06/02 08:41:31;;;;;;;2.20;0.90;;;26.60;56.40;;;;;;5095942;28;20062;-63
2022/06/02 08:43:59;;;;;;;2.73;0.90;;;28.60;55.00;;;;;;5096078;28;20095;-64
2022/06/02 08:46:59;;;;;;;3.35;1.10;;;29.10;54.50;;;;;;5096054;28;20020;-65
2022/06/02 08:49:54;;;;;;;2.45;1.00;;;29.90;52.90;;;;;;5097933;28;20344;-64
2022/06/02 08:53:03;;;;;;;3.20;0.90;;;29.10;53.40;;;;;;5096318;28;20016;-65
2022/06/02 08:55:40;;;;;;;1.90;0.80;;;29.30;53.10;;;;;;5096148;28;20020;-65
2022/06/02 08:58:52;;;;;;;2.67;0.90;;;28.80;52.50;;;;;;5096055;28;20491;-64
2022/06/02 09:01:55;;;;;;;1.75;0.90;;;29.00;52.80;;;;;;5095655;28;20032;-64
2022/06/02 09:04:51;;;;;;;2.63;0.88;;;28.80;52.10;;;;;;5095723;28;20421;-64
2022/06/02 09:07:23;;;;;;;3.88;0.80;;;28.30;52.20;;;;;;5095684;28;20536;-65
2022/06/02 09:10:30;;;;;;;5.85;1.08;;;28.90;51.70;;;;;;5095759;28;20024;-64
2022/06/02 09:13:35;;;;;;;3.42;0.90;;;28.40;52.00;;;;;;5095096;28;20119;-64
2022/06/02 09:16:21;;;;;;;2.78;0.88;;;28.80;51.90;;;;;;5094804;28;20040;-64
2022/06/02 09:19:09;;;;;;;2.13;1.25;;;30.70;50.40;;;;;;5095894;28;20023;-64
2022/06/02 09:21:40;;;;;;;3.40;0.75;;;30.00;49.70;;;;;;5095540;28;20020;-64
2022/06/02 09:24:24;;;;;;;1.30;0.70;;;29.40;49.70;;;;;;5077361;28;20020;-64
2022/06/02 09:27:02;;;;;;;2.65;1.00;;;29.10;50.00;;;;;;5095377;28;20088;-64
2022/06/02 09:29:32;;;;;;;5.18;1.00;;;28.40;50.80;;;;;;5095376;28;20057;-65
2022/06/02 09:32:14;;;;;;;5.63;1.35;;;28.50;51.10;;;;;;5095363;28;20123;-65
2022/06/02 09:34:50;;;;;;;3.90;0.77;;;28.20;51.00;;;;;;5095231;28;20024;-65
2022/06/02 09:37:28;;;;;;;7.63;1.27;;;28.90;50.60;;;;;;5095260;28;20111;-65
2022/06/02 09:40:19;;;;;;;0.90;0.70;;;28.40;50.60;;;;;;5094777;28;20024;-65
2022/06/02 09:43:06;;;;;;;1.98;0.80;;;28.10;50.30;;;;;;5095315;28;20024;-64
2022/06/02 09:46:03;;;;;;;3.35;1.02;;;28.00;50.80;;;;;;5094822;28;20024;-65
2022/06/02 09:48:32;;;;;;;2.33;1.00;;;28.00;51.10;;;;;;5094488;28;20382;-64
2022/06/02 09:51:09;;;;;;;2.95;0.88;;;28.50;51.10;;;;;;5095496;28;20024;-66
2022/06/02 09:53:46;;;;;;;2.97;1.00;;;28.50;50.60;;;;;;5094778;28;20028;-64
2022/06/02 09:56:36;;;;;;;2.03;0.93;;;28.80;50.60;;;;;;5094885;28;20020;-64
2022/06/02 09:59:37;;;;;;;10.38;1.50;;;28.50;49.50;;;;;;5094908;28;20024;-66
2022/06/02 10:02:17;;;;;;;64.78;6.80;;;28.70;50.40;;;;;;5012630;28;20559;-64
2022/06/02 10:04:58;;;;;;;10.30;1.50;;;30.20;49.00;;;;;;5012841;28;20481;-65
2022/06/02 10:07:45;;;;;;;2.08;1.10;;;29.40;49.00;;;;;;5012478;28;20038;-64
2022/06/02 10:10:39;;;;;;;4.18;1.20;;;28.30;50.30;;;;;;5012501;28;20042;-66
2022/06/02 10:13:35;;;;;;;1.17;0.75;;;28.90;49.80;;;;;;5012774;28;20038;-66
2022/06/02 10:16:29;;;;;;;1.92;0.77;;;30.00;49.70;;;;;;5012438;28;20042;-65
2022/06/02 10:19:03;;;;;;;1.38;0.70;;;29.70;49.10;;;;;;5012211;28;20030;-67
2022/06/02 10:21:59;;;;;;;2.92;0.80;;;29.70;49.00;;;;;;5012931;28;20029;-66
2022/06/02 10:24:56;;;;;;;10.43;2.23;;;29.20;48.80;;;;;;5012498;28;20488;-64
2022/06/02 10:27:29;;;;;;;2.40;0.90;;;29.40;49.30;;;;;;5012269;28;20021;-64
2022/06/02 10:30:36;;;;;;;1.17;0.80;;;28.40;49.30;;;;;;5012789;28;20455;-65
2022/06/02 10:33:26;;;;;;;2.88;0.98;;;28.60;50.00;;;;;;5012265;28;20070;-64
2022/06/02 10:35:55;;;;;;;3.00;0.90;;;28.50;49.90;;;;;;5011993;28;20030;-65
2022/06/02 10:38:35;;;;;;;1.55;0.70;;;28.30;50.50;;;;;;5048616;28;20547;-65
2022/06/02 10:41:15;;;;;;;2.13;0.90;;;28.30;50.50;;;;;;5094283;28;20077;-65
2022/06/02 10:44:16;;;;;;;2.40;1.27;;;29.70;49.50;;;;;;5093805;28;20039;-65
2022/06/02 10:47:28;;;;;;;8.10;5.75;;;29.40;49.50;;;;;;5093487;28;20465;-66
2022/06/02 10:50:08;;;;;;;3.67;0.80;;;29.20;49.40;;;;;;5075147;28;20078;-64
2022/06/02 10:53:01;;;;;;;3.78;0.90;;;28.50;50.30;;;;;;5093506;28;20036;-64
2022/06/02 10:56:04;;;;;;;1.88;1.08;;;27.20;51.40;;;;;;5093274;28;20021;-65
2022/06/02 10:58:48;;;;;;;2.05;0.90;;;28.00;51.00;;;;;;5092858;28;20046;-64
2022/06/02 11:01:41;;;;;;;2.08;0.80;;;29.20;50.10;;;;;;5094021;28;20066;-66
2022/06/02 11:04:50;;;;;;;1.15;0.80;;;30.10;49.00;;;;;;5075374;28;20443;-67
2022/06/02 11:07:40;;;;;;;1.30;0.90;;;27.70;51.20;;;;;;5093654;28;20467;-65
2022/06/02 11:10:19;;;;;;;1.98;0.82;;;26.20;52.70;;;;;;5094081;28;20028;-65
2022/06/02 11:12:56;;;;;;;2.38;0.90;;;25.80;53.40;;;;;;5093631;28;20028;-66
2022/06/02 11:15:44;;;;;;;4.78;1.30;;;25.10;54.20;;;;;;5093422;28;20060;-66
2022/06/02 11:18:38;;;;;;;1.80;1.08;;;24.70;55.20;;;;;;5074751;28;20135;-66
2022/06/02 11:21:20;;;;;;;1.33;0.90;;;24.50;55.30;;;;;;5093322;28;20046;-63
2022/06/02 11:23:57;;;;;;;5.25;1.23;;;24.10;55.60;;;;;;5093359;28;20078;-64
2022/06/02 11:26:44;;;;;;;3.55;1.75;;;23.80;56.50;;;;;;5092868;28;20027;-64
2022/06/02 11:29:34;;;;;;;3.05;1.23;;;23.60;56.80;;;;;;5093447;28;20039;-65
2022/06/02 11:32:18;;;;;;;1.75;0.98;;;23.90;57.10;;;;;;5093205;28;20462;-66
2022/06/02 11:35:00;;;;;;;3.55;0.80;;;23.80;56.80;;;;;;5093396;28;20432;-63
2022/06/02 11:37:45;;;;;;;2.25;1.00;;;23.90;57.40;;;;;;5074540;28;20028;-63
2022/06/02 11:40:26;;;;;;;2.22;0.70;;;24.30;56.50;;;;;;5092703;28;20024;-63
2022/06/02 11:43:12;;;;;;;4.45;0.85;;;24.40;56.10;;;;;;5093021;28;20032;-61
2022/06/02 11:46:23;;;;;;;1.50;0.95;;;24.00;56.60;;;;;;5093362;28;20062;-62
2022/06/02 11:49:25;;;;;;;1.92;1.10;;;24.00;57.10;;;;;;5070996;28;20082;-64
2022/06/02 11:52:37;;;;;;;2.95;1.13;;;23.70;57.30;;;;;;5093098;28;20040;-63
2022/06/02 11:55:26;;;;;;;2.20;0.70;;;23.70;57.90;;;;;;5092727;28;20043;-63
2022/06/02 11:58:04;;;;;;;3.05;1.17;;;23.60;58.30;;;;;;5092896;28;20389;-64
2022/06/02 12:00:48;;;;;;;2.20;0.80;;;23.80;57.80;;;;;;5092560;28;20099;-63
2022/06/02 12:03:38;;;;;;;4.30;0.95;;;23.70;57.60;;;;;;5074283;28;20106;-62
2022/06/02 12:06:36;;;;;;;8.20;1.30;;;23.70;58.10;;;;;;5092409;28;20052;-63
2022/06/02 12:09:35;;;;;;;2.60;0.70;;;23.80;57.70;;;;;;5093950;28;20020;-64
2022/06/02 12:12:18;;;;;;;2.88;0.90;;;23.70;58.00;;;;;;5078512;28;20016;-62
2022/06/02 12:15:21;;;;;;;2.70;1.02;;;23.40;58.30;;;;;;5096953;28;20381;-62
2022/06/02 12:17:50;;;;;;;1.98;1.10;;;23.50;58.20;;;;;;5096426;28;20032;-63
2022/06/02 12:20:53;;;;;;;5.47;1.48;;;23.90;58.10;;;;;;5096452;28;20068;-63
2022/06/02 12:23:43;;;;;;;2.17;0.90;;;23.60;58.00;;;;;;5096514;28;20020;-62
2022/06/02 12:26:22;;;;;;;2.53;0.80;;;23.30;58.40;;;;;;5096209;28;20024;-61
2022/06/02 12:28:57;;;;;;;4.70;0.85;;;23.30;58.80;;;;;;5096929;28;20035;-62
2022/06/02 12:31:58;;;;;;;1.85;0.80;;;23.20;58.70;;;;;;5096914;28;20107;-63
2022/06/02 12:34:43;;;;;;;2.40;0.80;;;23.30;58.70;;;;;;5096610;28;20016;-63
2022/06/02 12:37:38;;;;;;;2.95;1.15;;;23.20;59.00;;;;;;5096156;28;20028;-66
2022/06/02 12:40:34;;;;;;;3.13;1.00;;;23.20;59.60;;;;;;5097429;28;20482;-64
2022/06/02 12:43:19;;;;;;;1.77;1.00;;;23.20;59.40;;;;;;5097232;28;20039;-64
2022/06/02 12:46:28;;;;;;;3.13;0.82;;;23.50;59.10;;;;;;5096445;28;20160;-64
2022/06/02 12:49:28;;;;;;;2.95;0.90;;;23.70;59.20;;;;;;5086761;28;20040;-64
2022/06/02 12:52:10;;;;;;;1.45;0.80;;;23.50;58.40;;;;;;5096314;28;20024;-65
2022/06/02 12:54:54;;;;;;;1.77;0.90;;;23.20;59.00;;;;;;5096650;28;20039;-65
2022/06/02 12:57:41;;;;;;;2.38;1.10;;;23.20;59.40;;;;;;5096392;28;20024;-64
2022/06/02 13:00:13;;;;;;;;;;;23.10;59.60;;;;;;5078693;28;20031;-67
2022/06/02 13:03:09;;;;;;;2.55;1.13;;;23.10;59.80;;;;;;5097629;28;19954;-65
2022/06/02 13:05:56;;;;;;;3.35;1.00;;;23.30;59.30;;;;;;5098046;28;20020;-63
2022/06/02 13:08:38;;;;;;;;;;;23.20;59.10;;;;;;5098061;28;20032;-63
2022/06/02 13:11:33;;;;;;;3.33;0.90;;;23.10;59.60;;;;;;5097345;28;19904;-64
2022/06/02 13:14:19;;;;;;;1.42;0.93;;;23.20;59.40;;;;;;5097000;28;20093;-63
2022/06/02 13:17:00;;;;;;;2.30;1.00;;;23.20;59.40;;;;;;5077864;28;20032;-63
2022/06/02 13:19:37;;;;;;;3.05;1.13;;;23.30;59.70;;;;;;5077972;28;20359;-63
2022/06/02 13:22:38;;;;;;;3.30;1.10;;;23.30;59.00;;;;;;5094771;28;20508;-63
2022/06/02 13:25:35;;;;;;;2.30;0.90;;;23.20;59.20;;;;;;5095862;28;20024;-65
2022/06/02 13:28:10;;;;;;;1.77;1.20;;;23.20;59.50;;;;;;5095787;28;20077;-63
2022/06/02 13:30:58;;;;;;;1.63;0.82;;;23.10;60.00;;;;;;5095801;28;20032;-65
2022/06/02 13:33:38;;;;;;;2.72;0.80;;;23.00;60.10;;;;;;5095608;28;20123;-61
2022/06/02 13:36:28;;;;;;;2.40;1.00;;;23.10;60.30;;;;;;5096198;28;20024;-62
2022/06/02 13:39:38;;;;;;;1.92;0.82;;;23.30;59.90;;;;;;5095700;28;20024;-63
2022/06/02 13:42:18;;;;;;;4.35;0.95;;;23.20;60.10;;;;;;5074526;28;20039;-62
2022/06/02 13:45:05;;;;;;;4.30;1.40;;;23.10;59.60;;;;;;5095752;28;20016;-59
2022/06/02 13:47:55;;;;;;;12.18;1.17;;;23.10;60.00;;;;;;5095327;28;20024;-63
2022/06/02 13:50:36;;;;;;;1.45;0.80;;;23.00;60.00;;;;;;5096585;28;20432;-63
2022/06/02 13:53:37;;;;;;;1.33;0.80;;;23.20;60.00;;;;;;5096356;28;20046;-61
2022/06/02 13:59:09;;;;;;;3.05;1.00;;;23.60;59.30;;;;;;5095842;28;20401;-63
2022/06/02 14:02:28;;;;;;;1.13;0.90;;;23.60;59.40;;;;;;5095261;28;20028;-61
2022/06/02 14:05:25;;;;;;;2.42;0.90;;;23.80;59.50;;;;;;5013482;28;20030;-63
2022/06/02 14:08:22;;;;;;;4.22;1.35;;;23.60;59.50;;;;;;5095029;28;20016;-61
2022/06/02 14:10:57;;;;;;;1.48;0.98;;;23.50;60.20;;;;;;5094784;28;20024;-63
2022/06/02 14:14:09;;;;;;;3.40;0.90;;;23.40;59.80;;;;;;5094915;28;20024;-62
2022/06/02 14:16:44;;;;;;;1.63;1.20;;;23.50;60.30;;;;;;5094448;28;20035;-65
2022/06/02 14:19:28;;;;;;;1.77;0.88;;;23.70;60.50;;;;;;5094321;28;20028;-60
2022/06/02 14:22:12;;;;;;;1.83;1.08;;;23.70;60.10;;;;;;5094851;28;20024;-60
2022/06/02 14:24:52;;;;;;;3.72;1.10;;;23.80;60.40;;;;;;5094550;28;20435;-62
2022/06/02 14:27:37;;;;;;;1.10;0.70;;;23.80;60.10;;;;;;5076543;28;20149;-62
2022/06/02 14:30:19;;;;;;;2.95;0.95;;;23.60;60.70;;;;;;5094334;28;20016;-62
2022/06/02 14:33:08;;;;;;;2.90;0.98;;;23.70;60.10;;;;;;5093200;28;20169;-63
2022/06/02 14:35:34;;;;;;;3.08;0.93;;;23.70;60.60;;;;;;5094311;28;20024;-63
2022/06/02 14:38:26;;;;;;;3.28;0.73;;;23.70;60.40;;;;;;5094036;28;20028;-64
2022/06/02 14:41:25;;;;;;;2.65;1.20;;;23.60;60.50;;;;;;5094807;28;20385;-62
2022/06/02 14:44:20;;;;;;;1.05;0.90;;;23.70;60.80;;;;;;5094544;28;20027;-64
2022/06/02 14:47:08;;;;;;;3.33;1.10;;;23.70;60.50;;;;;;5094210;28;20447;-64